Saint-Zacharie, Canada
Current Conditions -  °F | °C
As of 12:00 AM on Tuesday 21 Oct 2014 (Local Time) from CYQB Reporting Station
Broken Clouds Broken Clouds  
Wind Chill: 33°   Ceiling: 13000
Heat Index: 37°   Visibility: 15mi
Dew Point: 32°   Wind: 6mph
Humidity: 81%   Direction: 240°WSW
Pressure: 29.97"   Gusts: NA
Location:  46.13°N, 70.37°W
Report Text: CYQB 210400Z 24005KT 15SM BKN130 03/M00 A2997 RMK AC7 SLP152
Loading
Personal Weather Stations






























Interactive Weather Map
Tropical Storm Tracking
New forecast layout! Learn more

10-Day Weather Forecast

Advertisements
Track Severe Weather on mobile